sensor_id;sensor_type;location;lat;lon;timestamp;P1;durP1;ratioP1;P2;durP2;ratioP2
6121;SDS011;3091;51.506;7.672;2022-12-18T00:02:13;14.17;;;13.67;;
6121;SDS011;3091;51.506;7.672;2022-12-18T00:04:39;16.93;;;15.90;;
6121;SDS011;3091;51.506;7.672;2022-12-18T00:07:05;15.10;;;14.33;;
6121;SDS011;3091;51.506;7.672;2022-12-18T00:09:31;12.93;;;12.43;;
6121;SDS011;3091;51.506;7.672;2022-12-18T00:11:57;13.33;;;12.80;;
6121;SDS011;3091;51.506;7.672;2022-12-18T00:14:23;13.00;;;12.50;;
6121;SDS011;3091;51.506;7.672;2022-12-18T00:16:49;14.63;;;14.03;;
6121;SDS011;3091;51.506;7.672;2022-12-18T00:19:15;12.37;;;11.87;;
6121;SDS011;3091;51.506;7.672;2022-12-18T00:21:41;14.60;;;13.90;;
6121;SDS011;3091;51.506;7.672;2022-12-18T00:24:08;13.60;;;12.90;;
6121;SDS011;3091;51.506;7.672;2022-12-18T00:26:35;14.33;;;13.70;;
6121;SDS011;3091;51.506;7.672;2022-12-18T00:29:04;13.33;;;12.73;;
6121;SDS011;3091;51.506;7.672;2022-12-18T00:31:30;13.00;;;12.40;;
6121;SDS011;3091;51.506;7.672;2022-12-18T00:33:57;12.10;;;11.70;;
6121;SDS011;3091;51.506;7.672;2022-12-18T00:36:24;12.70;;;12.20;;
6121;SDS011;3091;51.506;7.672;2022-12-18T00:38:50;13.67;;;12.40;;
6121;SDS011;3091;51.506;7.672;2022-12-18T00:41:19;13.33;;;12.83;;
6121;SDS011;3091;51.506;7.672;2022-12-18T00:44:05;12.47;;;11.97;;
6121;SDS011;3091;51.506;7.672;2022-12-18T00:46:31;11.90;;;11.50;;
6121;SDS011;3091;51.506;7.672;2022-12-18T00:48:57;12.50;;;12.00;;
6121;SDS011;3091;51.506;7.672;2022-12-18T00:51:24;11.93;;;11.53;;
6121;SDS011;3091;51.506;7.672;2022-12-18T00:53:51;13.43;;;12.93;;
6121;SDS011;3091;51.506;7.672;2022-12-18T00:56:20;11.80;;;11.40;;
6121;SDS011;3091;51.506;7.672;2022-12-18T00:58:46;12.53;;;11.93;;
6121;SDS011;3091;51.506;7.672;2022-12-18T01:01:14;12.40;;;12.00;;
6121;SDS011;3091;51.506;7.672;2022-12-18T01:03:43;12.30;;;11.90;;
6121;SDS011;3091;51.506;7.672;2022-12-18T01:06:13;12.57;;;12.17;;
6121;SDS011;3091;51.506;7.672;2022-12-18T01:08:39;12.13;;;11.73;;
6121;SDS011;3091;51.506;7.672;2022-12-18T01:11:12;12.50;;;12.10;;
6121;SDS011;3091;51.506;7.672;2022-12-18T01:13:39;14.40;;;13.87;;
6121;SDS011;3091;51.506;7.672;2022-12-18T01:16:05;15.43;;;14.83;;
6121;SDS011;3091;51.506;7.672;2022-12-18T01:18:31;12.57;;;12.17;;
6121;SDS011;3091;51.506;7.672;2022-12-18T01:20:58;14.13;;;13.63;;
6121;SDS011;3091;51.506;7.672;2022-12-18T01:23:25;14.10;;;13.47;;
6121;SDS011;3091;51.506;7.672;2022-12-18T01:25:52;13.20;;;12.80;;
6121;SDS011;3091;51.506;7.672;2022-12-18T01:28:18;13.80;;;13.30;;
6121;SDS011;3091;51.506;7.672;2022-12-18T01:30:44;15.47;;;14.43;;
6121;SDS011;3091;51.506;7.672;2022-12-18T01:33:10;13.27;;;12.87;;
6121;SDS011;3091;51.506;7.672;2022-12-18T01:35:44;13.53;;;13.13;;
6121;SDS011;3091;51.506;7.672;2022-12-18T01:38:10;14.20;;;13.50;;
6121;SDS011;3091;51.506;7.672;2022-12-18T01:40:36;13.93;;;13.43;;
6121;SDS011;3091;51.506;7.672;2022-12-18T01:43:02;13.97;;;13.47;;
6121;SDS011;3091;51.506;7.672;2022-12-18T01:45:31;13.23;;;12.83;;
6121;SDS011;3091;51.506;7.672;2022-12-18T01:47:59;15.60;;;14.70;;
6121;SDS011;3091;51.506;7.672;2022-12-18T01:50:32;13.13;;;12.73;;
6121;SDS011;3091;51.506;7.672;2022-12-18T01:53:01;14.07;;;13.47;;
6121;SDS011;3091;51.506;7.672;2022-12-18T01:55:31;13.40;;;12.90;;
6121;SDS011;3091;51.506;7.672;2022-12-18T01:57:58;15.23;;;14.00;;
6121;SDS011;3091;51.506;7.672;2022-12-18T02:00:25;13.93;;;13.47;;
6121;SDS011;3091;51.506;7.672;2022-12-18T02:02:52;14.33;;;13.67;;
6121;SDS011;3091;51.506;7.672;2022-12-18T02:05:19;14.17;;;13.57;;
6121;SDS011;3091;51.506;7.672;2022-12-18T02:08:09;14.33;;;13.77;;
6121;SDS011;3091;51.506;7.672;2022-12-18T02:13:22;15.37;;;14.67;;
6121;SDS011;3091;51.506;7.672;2022-12-18T02:16:26;13.20;;;12.70;;
6121;SDS011;3091;51.506;7.672;2022-12-18T02:18:45;15.03;;;13.50;;
6121;SDS011;3091;51.506;7.672;2022-12-18T02:26:22;14.13;;;13.53;;
6121;SDS011;3091;51.506;7.672;2022-12-18T02:28:52;14.73;;;14.13;;
6121;SDS011;3091;51.506;7.672;2022-12-18T02:31:21;12.47;;;11.97;;
6121;SDS011;3091;51.506;7.672;2022-12-18T02:33:49;13.97;;;13.33;;
6121;SDS011;3091;51.506;7.672;2022-12-18T02:36:15;12.83;;;12.33;;
6121;SDS011;3091;51.506;7.672;2022-12-18T02:38:42;12.63;;;12.23;;
6121;SDS011;3091;51.506;7.672;2022-12-18T02:41:10;12.40;;;12.00;;
6121;SDS011;3091;51.506;7.672;2022-12-18T02:43:36;13.07;;;12.67;;
6121;SDS011;3091;51.506;7.672;2022-12-18T02:46:20;13.70;;;13.20;;
6121;SDS011;3091;51.506;7.672;2022-12-18T02:48:48;13.97;;;13.40;;
6121;SDS011;3091;51.506;7.672;2022-12-18T02:51:26;13.40;;;12.70;;
6121;SDS011;3091;51.506;7.672;2022-12-18T02:53:58;13.67;;;13.27;;
6121;SDS011;3091;51.506;7.672;2022-12-18T02:56:29;14.60;;;13.67;;
6121;SDS011;3091;51.506;7.672;2022-12-18T02:58:58;14.50;;;13.80;;
6121;SDS011;3091;51.506;7.672;2022-12-18T03:06:37;13.83;;;13.23;;
6121;SDS011;3091;51.506;7.672;2022-12-18T03:09:14;13.60;;;13.13;;
6121;SDS011;3091;51.506;7.672;2022-12-18T03:11:44;13.13;;;12.73;;
6121;SDS011;3091;51.506;7.672;2022-12-18T03:14:30;14.43;;;13.90;;
6121;SDS011;3091;51.506;7.672;2022-12-18T03:16:59;13.13;;;12.73;;
6121;SDS011;3091;51.506;7.672;2022-12-18T03:19:27;14.03;;;13.43;;
6121;SDS011;3091;51.506;7.672;2022-12-18T03:21:55;13.90;;;13.30;;
6121;SDS011;3091;51.506;7.672;2022-12-18T03:24:21;12.60;;;12.20;;
6121;SDS011;3091;51.506;7.672;2022-12-18T03:26:50;14.30;;;13.50;;
6121;SDS011;3091;51.506;7.672;2022-12-18T03:29:22;14.10;;;13.50;;
6121;SDS011;3091;51.506;7.672;2022-12-18T03:31:54;13.27;;;12.67;;
6121;SDS011;3091;51.506;7.672;2022-12-18T03:34:23;14.50;;;13.60;;
6121;SDS011;3091;51.506;7.672;2022-12-18T03:36:51;13.37;;;12.87;;
6121;SDS011;3091;51.506;7.672;2022-12-18T03:39:17;13.43;;;12.93;;
6121;SDS011;3091;51.506;7.672;2022-12-18T03:41:44;13.40;;;12.70;;
6121;SDS011;3091;51.506;7.672;2022-12-18T03:47:01;12.67;;;12.27;;
6121;SDS011;3091;51.506;7.672;2022-12-18T03:49:38;13.53;;;13.03;;
6121;SDS011;3091;51.506;7.672;2022-12-18T03:52:11;13.10;;;12.60;;
6121;SDS011;3091;51.506;7.672;2022-12-18T03:54:39;13.33;;;12.90;;
6121;SDS011;3091;51.506;7.672;2022-12-18T03:57:07;14.33;;;13.53;;
6121;SDS011;3091;51.506;7.672;2022-12-18T03:59:35;14.97;;;14.37;;
6121;SDS011;3091;51.506;7.672;2022-12-18T04:02:03;14.20;;;13.57;;
6121;SDS011;3091;51.506;7.672;2022-12-18T04:04:32;14.60;;;13.97;;
6121;SDS011;3091;51.506;7.672;2022-12-18T04:06:59;13.47;;;12.90;;
6121;SDS011;3091;51.506;7.672;2022-12-18T04:09:26;12.87;;;12.33;;
6121;SDS011;3091;51.506;7.672;2022-12-18T04:11:52;13.67;;;13.17;;
6121;SDS011;3091;51.506;7.672;2022-12-18T04:14:19;12.33;;;11.93;;
6121;SDS011;3091;51.506;7.672;2022-12-18T04:16:47;12.70;;;12.20;;
6121;SDS011;3091;51.506;7.672;2022-12-18T04:19:13;13.50;;;12.73;;
6121;SDS011;3091;51.506;7.672;2022-12-18T04:21:39;12.27;;;11.77;;
6121;SDS011;3091;51.506;7.672;2022-12-18T04:24:05;12.93;;;12.43;;
6121;SDS011;3091;51.506;7.672;2022-12-18T04:26:31;14.23;;;13.43;;
6121;SDS011;3091;51.506;7.672;2022-12-18T04:28:57;13.30;;;12.60;;
6121;SDS011;3091;51.506;7.672;2022-12-18T04:31:23;12.83;;;12.33;;
6121;SDS011;3091;51.506;7.672;2022-12-18T04:33:49;11.80;;;11.40;;
6121;SDS011;3091;51.506;7.672;2022-12-18T04:36:15;12.13;;;11.67;;
6121;SDS011;3091;51.506;7.672;2022-12-18T04:38:41;14.03;;;13.33;;
6121;SDS011;3091;51.506;7.672;2022-12-18T04:41:07;12.83;;;12.10;;
6121;SDS011;3091;51.506;7.672;2022-12-18T04:43:33;13.57;;;12.77;;
6121;SDS011;3091;51.506;7.672;2022-12-18T04:46:03;12.47;;;11.90;;
6121;SDS011;3091;51.506;7.672;2022-12-18T04:48:29;12.60;;;12.03;;
6121;SDS011;3091;51.506;7.672;2022-12-18T04:50:55;13.83;;;12.60;;
6121;SDS011;3091;51.506;7.672;2022-12-18T04:53:21;12.57;;;11.83;;
6121;SDS011;3091;51.506;7.672;2022-12-18T04:55:47;12.50;;;11.90;;
6121;SDS011;3091;51.506;7.672;2022-12-18T04:58:13;12.00;;;11.60;;
6121;SDS011;3091;51.506;7.672;2022-12-18T05:00:47;12.47;;;12.07;;
6121;SDS011;3091;51.506;7.672;2022-12-18T05:03:13;12.90;;;12.40;;
6121;SDS011;3091;51.506;7.672;2022-12-18T05:05:39;12.10;;;11.63;;
6121;SDS011;3091;51.506;7.672;2022-12-18T05:08:05;12.50;;;11.90;;
6121;SDS011;3091;51.506;7.672;2022-12-18T05:10:31;11.63;;;11.20;;
6121;SDS011;3091;51.506;7.672;2022-12-18T05:12:57;12.30;;;11.80;;
6121;SDS011;3091;51.506;7.672;2022-12-18T05:15:23;13.70;;;12.77;;
6121;SDS011;3091;51.506;7.672;2022-12-18T05:17:49;12.63;;;12.07;;
6121;SDS011;3091;51.506;7.672;2022-12-18T05:20:16;12.97;;;12.37;;
6121;SDS011;3091;51.506;7.672;2022-12-18T05:22:43;11.47;;;11.07;;
6121;SDS011;3091;51.506;7.672;2022-12-18T05:25:09;11.87;;;11.47;;
6121;SDS011;3091;51.506;7.672;2022-12-18T05:27:35;12.20;;;11.70;;
6121;SDS011;3091;51.506;7.672;2022-12-18T05:30:01;12.90;;;12.30;;
6121;SDS011;3091;51.506;7.672;2022-12-18T05:32:27;11.90;;;11.33;;
6121;SDS011;3091;51.506;7.672;2022-12-18T05:34:53;12.10;;;11.60;;
6121;SDS011;3091;51.506;7.672;2022-12-18T05:37:19;12.23;;;11.63;;
6121;SDS011;3091;51.506;7.672;2022-12-18T05:39:45;11.83;;;11.40;;
6121;SDS011;3091;51.506;7.672;2022-12-18T05:42:11;11.70;;;11.30;;
6121;SDS011;3091;51.506;7.672;2022-12-18T05:44:37;12.50;;;11.90;;
6121;SDS011;3091;51.506;7.672;2022-12-18T05:47:03;12.23;;;11.63;;
6121;SDS011;3091;51.506;7.672;2022-12-18T05:49:29;12.20;;;11.70;;
6121;SDS011;3091;51.506;7.672;2022-12-18T05:51:55;12.63;;;11.83;;
6121;SDS011;3091;51.506;7.672;2022-12-18T05:54:21;12.10;;;11.60;;
6121;SDS011;3091;51.506;7.672;2022-12-18T05:56:47;13.20;;;12.50;;
6121;SDS011;3091;51.506;7.672;2022-12-18T05:59:13;11.97;;;11.40;;
6121;SDS011;3091;51.506;7.672;2022-12-18T06:01:39;11.73;;;11.33;;
6121;SDS011;3091;51.506;7.672;2022-12-18T06:04:05;11.93;;;11.53;;
6121;SDS011;3091;51.506;7.672;2022-12-18T06:06:31;11.67;;;11.27;;
6121;SDS011;3091;51.506;7.672;2022-12-18T06:08:57;12.27;;;11.73;;
6121;SDS011;3091;51.506;7.672;2022-12-18T06:11:25;13.13;;;12.53;;
6121;SDS011;3091;51.506;7.672;2022-12-18T06:13:51;12.00;;;11.60;;
6121;SDS011;3091;51.506;7.672;2022-12-18T06:16:17;12.20;;;11.60;;
6121;SDS011;3091;51.506;7.672;2022-12-18T06:18:43;12.20;;;11.70;;
6121;SDS011;3091;51.506;7.672;2022-12-18T06:21:09;12.70;;;12.20;;
6121;SDS011;3091;51.506;7.672;2022-12-18T06:23:35;11.97;;;11.53;;
6121;SDS011;3091;51.506;7.672;2022-12-18T06:26:05;11.90;;;11.50;;
6121;SDS011;3091;51.506;7.672;2022-12-18T06:28:32;12.43;;;11.93;;
6121;SDS011;3091;51.506;7.672;2022-12-18T06:30:58;13.63;;;13.10;;
6121;SDS011;3091;51.506;7.672;2022-12-18T06:33:26;12.57;;;12.07;;
6121;SDS011;3091;51.506;7.672;2022-12-18T06:35:52;12.63;;;12.13;;
6121;SDS011;3091;51.506;7.672;2022-12-18T06:38:19;12.10;;;11.60;;
6121;SDS011;3091;51.506;7.672;2022-12-18T06:40:45;11.57;;;11.17;;
6121;SDS011;3091;51.506;7.672;2022-12-18T06:43:13;12.30;;;11.73;;
6121;SDS011;3091;51.506;7.672;2022-12-18T06:45:39;12.57;;;11.97;;
6121;SDS011;3091;51.506;7.672;2022-12-18T06:48:05;12.63;;;12.03;;
6121;SDS011;3091;51.506;7.672;2022-12-18T06:50:31;12.90;;;12.30;;
6121;SDS011;3091;51.506;7.672;2022-12-18T06:52:57;11.70;;;11.30;;
6121;SDS011;3091;51.506;7.672;2022-12-18T06:55:23;11.63;;;11.23;;
6121;SDS011;3091;51.506;7.672;2022-12-18T06:57:49;11.73;;;11.33;;
6121;SDS011;3091;51.506;7.672;2022-12-18T07:00:15;12.00;;;11.40;;
6121;SDS011;3091;51.506;7.672;2022-12-18T07:02:42;12.20;;;11.80;;
6121;SDS011;3091;51.506;7.672;2022-12-18T07:05:08;13.70;;;12.80;;
6121;SDS011;3091;51.506;7.672;2022-12-18T07:07:34;12.17;;;11.70;;
6121;SDS011;3091;51.506;7.672;2022-12-18T07:10:00;12.73;;;11.80;;
6121;SDS011;3091;51.506;7.672;2022-12-18T07:12:26;12.43;;;11.87;;
6121;SDS011;3091;51.506;7.672;2022-12-18T07:14:52;12.10;;;11.50;;
6121;SDS011;3091;51.506;7.672;2022-12-18T07:17:18;12.87;;;12.20;;
6121;SDS011;3091;51.506;7.672;2022-12-18T07:19:44;11.87;;;11.30;;
6121;SDS011;3091;51.506;7.672;2022-12-18T07:22:10;12.20;;;11.70;;
6121;SDS011;3091;51.506;7.672;2022-12-18T07:24:36;12.17;;;11.57;;
6121;SDS011;3091;51.506;7.672;2022-12-18T07:27:05;12.50;;;11.90;;
6121;SDS011;3091;51.506;7.672;2022-12-18T07:29:31;12.37;;;11.87;;
6121;SDS011;3091;51.506;7.672;2022-12-18T07:31:57;12.00;;;11.50;;
6121;SDS011;3091;51.506;7.672;2022-12-18T07:34:23;13.03;;;12.33;;
6121;SDS011;3091;51.506;7.672;2022-12-18T07:36:49;12.37;;;11.77;;
6121;SDS011;3091;51.506;7.672;2022-12-18T07:39:17;12.97;;;12.37;;
6121;SDS011;3091;51.506;7.672;2022-12-18T07:41:43;12.23;;;11.67;;
6121;SDS011;3091;51.506;7.672;2022-12-18T07:44:29;13.27;;;12.30;;
6121;SDS011;3091;51.506;7.672;2022-12-18T07:46:55;11.97;;;11.23;;
6121;SDS011;3091;51.506;7.672;2022-12-18T07:49:21;12.37;;;11.63;;
6121;SDS011;3091;51.506;7.672;2022-12-18T07:51:47;13.00;;;12.30;;
6121;SDS011;3091;51.506;7.672;2022-12-18T07:54:14;11.73;;;11.33;;
6121;SDS011;3091;51.506;7.672;2022-12-18T07:56:40;11.73;;;11.23;;
6121;SDS011;3091;51.506;7.672;2022-12-18T07:59:06;10.80;;;10.43;;
6121;SDS011;3091;51.506;7.672;2022-12-18T08:01:32;11.90;;;11.37;;
6121;SDS011;3091;51.506;7.672;2022-12-18T08:03:59;13.90;;;13.10;;
6121;SDS011;3091;51.506;7.672;2022-12-18T08:06:25;11.87;;;11.37;;
6121;SDS011;3091;51.506;7.672;2022-12-18T08:08:52;11.00;;;10.60;;
6121;SDS011;3091;51.506;7.672;2022-12-18T08:11:18;11.17;;;10.77;;
6121;SDS011;3091;51.506;7.672;2022-12-18T08:13:44;12.40;;;11.90;;
6121;SDS011;3091;51.506;7.672;2022-12-18T08:16:10;12.27;;;11.67;;
6121;SDS011;3091;51.506;7.672;2022-12-18T08:18:36;12.50;;;11.90;;
6121;SDS011;3091;51.506;7.672;2022-12-18T08:21:13;10.87;;;10.47;;
6121;SDS011;3091;51.506;7.672;2022-12-18T08:23:40;13.33;;;12.63;;
6121;SDS011;3091;51.506;7.672;2022-12-18T08:26:06;13.03;;;12.30;;
6121;SDS011;3091;51.506;7.672;2022-12-18T08:28:33;13.60;;;12.90;;
6121;SDS011;3091;51.506;7.672;2022-12-18T08:30:59;12.27;;;11.67;;
6121;SDS011;3091;51.506;7.672;2022-12-18T08:33:25;11.93;;;11.43;;
6121;SDS011;3091;51.506;7.672;2022-12-18T08:35:52;12.50;;;11.90;;
6121;SDS011;3091;51.506;7.672;2022-12-18T08:38:18;12.60;;;11.90;;
6121;SDS011;3091;51.506;7.672;2022-12-18T08:40:44;12.40;;;11.80;;
6121;SDS011;3091;51.506;7.672;2022-12-18T08:43:10;11.93;;;11.47;;
6121;SDS011;3091;51.506;7.672;2022-12-18T08:45:55;13.50;;;12.70;;
6121;SDS011;3091;51.506;7.672;2022-12-18T08:48:21;12.83;;;12.23;;
6121;SDS011;3091;51.506;7.672;2022-12-18T08:50:56;12.27;;;11.67;;
6121;SDS011;3091;51.506;7.672;2022-12-18T08:53:23;12.37;;;11.87;;
6121;SDS011;3091;51.506;7.672;2022-12-18T08:55:51;12.47;;;11.93;;
6121;SDS011;3091;51.506;7.672;2022-12-18T08:58:18;11.73;;;11.33;;
6121;SDS011;3091;51.506;7.672;2022-12-18T09:00:46;12.70;;;12.03;;
6121;SDS011;3091;51.506;7.672;2022-12-18T09:03:13;12.03;;;11.60;;
6121;SDS011;3091;51.506;7.672;2022-12-18T09:05:39;12.83;;;12.20;;
6121;SDS011;3091;51.506;7.672;2022-12-18T09:08:05;12.50;;;11.90;;
6121;SDS011;3091;51.506;7.672;2022-12-18T09:10:31;12.83;;;11.93;;
6121;SDS011;3091;51.506;7.672;2022-12-18T09:12:57;12.53;;;11.90;;
6121;SDS011;3091;51.506;7.672;2022-12-18T09:15:23;11.93;;;11.43;;
6121;SDS011;3091;51.506;7.672;2022-12-18T09:17:51;12.87;;;12.27;;
6121;SDS011;3091;51.506;7.672;2022-12-18T09:20:20;12.50;;;12.00;;
6121;SDS011;3091;51.506;7.672;2022-12-18T09:22:46;11.67;;;11.20;;
6121;SDS011;3091;51.506;7.672;2022-12-18T09:25:12;12.83;;;12.13;;
6121;SDS011;3091;51.506;7.672;2022-12-18T09:27:38;12.53;;;11.93;;
6121;SDS011;3091;51.506;7.672;2022-12-18T09:30:04;13.73;;;13.13;;
6121;SDS011;3091;51.506;7.672;2022-12-18T09:32:30;13.03;;;12.33;;
6121;SDS011;3091;51.506;7.672;2022-12-18T09:34:56;13.20;;;12.50;;
6121;SDS011;3091;51.506;7.672;2022-12-18T09:37:22;13.50;;;12.80;;
6121;SDS011;3091;51.506;7.672;2022-12-18T09:39:51;12.00;;;11.50;;
6121;SDS011;3091;51.506;7.672;2022-12-18T09:42:20;11.73;;;11.33;;
6121;SDS011;3091;51.506;7.672;2022-12-18T09:44:53;12.03;;;11.33;;
6121;SDS011;3091;51.506;7.672;2022-12-18T09:47:22;12.17;;;11.63;;
6121;SDS011;3091;51.506;7.672;2022-12-18T09:49:50;12.90;;;12.20;;
6121;SDS011;3091;51.506;7.672;2022-12-18T09:52:25;11.80;;;11.40;;
6121;SDS011;3091;51.506;7.672;2022-12-18T09:55:16;12.23;;;11.77;;
6121;SDS011;3091;51.506;7.672;2022-12-18T09:57:40;12.50;;;11.90;;
6121;SDS011;3091;51.506;7.672;2022-12-18T10:00:19;12.43;;;11.93;;
6121;SDS011;3091;51.506;7.672;2022-12-18T10:02:45;12.10;;;11.50;;
6121;SDS011;3091;51.506;7.672;2022-12-18T10:05:12;12.63;;;12.03;;
6121;SDS011;3091;51.506;7.672;2022-12-18T10:10:30;12.23;;;11.57;;
6121;SDS011;3091;51.506;7.672;2022-12-18T10:13:07;12.43;;;11.93;;
6121;SDS011;3091;51.506;7.672;2022-12-18T10:15:39;11.80;;;11.30;;
6121;SDS011;3091;51.506;7.672;2022-12-18T10:18:21;11.07;;;10.67;;
6121;SDS011;3091;51.506;7.672;2022-12-18T10:20:54;11.20;;;10.80;;
6121;SDS011;3091;51.506;7.672;2022-12-18T10:23:25;12.30;;;11.70;;
6121;SDS011;3091;51.506;7.672;2022-12-18T10:25:53;11.80;;;11.30;;
6121;SDS011;3091;51.506;7.672;2022-12-18T10:28:21;11.90;;;11.40;;
6121;SDS011;3091;51.506;7.672;2022-12-18T10:30:48;11.60;;;11.20;;
6121;SDS011;3091;51.506;7.672;2022-12-18T10:33:15;12.70;;;12.03;;
6121;SDS011;3091;51.506;7.672;2022-12-18T10:35:42;11.60;;;11.20;;
6121;SDS011;3091;51.506;7.672;2022-12-18T10:40:51;11.60;;;11.20;;
6121;SDS011;3091;51.506;7.672;2022-12-18T10:43:22;11.73;;;11.33;;
6121;SDS011;3091;51.506;7.672;2022-12-18T10:48:33;11.90;;;11.50;;
6121;SDS011;3091;51.506;7.672;2022-12-18T10:51:00;11.40;;;11.00;;
6121;SDS011;3091;51.506;7.672;2022-12-18T10:53:27;11.97;;;11.30;;
6121;SDS011;3091;51.506;7.672;2022-12-18T10:55:57;11.20;;;10.80;;
6121;SDS011;3091;51.506;7.672;2022-12-18T11:03:32;11.87;;;11.43;;
6121;SDS011;3091;51.506;7.672;2022-12-18T11:06:04;12.10;;;11.60;;
6121;SDS011;3091;51.506;7.672;2022-12-18T11:08:31;11.53;;;11.03;;
6121;SDS011;3091;51.506;7.672;2022-12-18T11:10:57;11.40;;;10.90;;
6121;SDS011;3091;51.506;7.672;2022-12-18T11:13:24;11.80;;;11.30;;
6121;SDS011;3091;51.506;7.672;2022-12-18T11:15:51;12.47;;;11.97;;
6121;SDS011;3091;51.506;7.672;2022-12-18T11:18:23;12.20;;;11.40;;
6121;SDS011;3091;51.506;7.672;2022-12-18T11:20:52;11.57;;;11.07;;
6121;SDS011;3091;51.506;7.672;2022-12-18T11:23:18;13.20;;;12.60;;
6121;SDS011;3091;51.506;7.672;2022-12-18T11:25:54;11.30;;;10.90;;
6121;SDS011;3091;51.506;7.672;2022-12-18T11:33:41;11.97;;;11.57;;
6121;SDS011;3091;51.506;7.672;2022-12-18T11:36:09;11.20;;;10.80;;
6121;SDS011;3091;51.506;7.672;2022-12-18T11:38:36;11.30;;;10.90;;
6121;SDS011;3091;51.506;7.672;2022-12-18T11:41:21;11.93;;;11.37;;
6121;SDS011;3091;51.506;7.672;2022-12-18T11:44:09;11.40;;;11.00;;
6121;SDS011;3091;51.506;7.672;2022-12-18T11:46:37;11.60;;;11.20;;
6121;SDS011;3091;51.506;7.672;2022-12-18T11:49:13;11.70;;;11.30;;
6121;SDS011;3091;51.506;7.672;2022-12-18T11:51:47;11.70;;;11.30;;
6121;SDS011;3091;51.506;7.672;2022-12-18T11:54:15;11.27;;;10.80;;
6121;SDS011;3091;51.506;7.672;2022-12-18T11:56:51;11.43;;;11.03;;
6121;SDS011;3091;51.506;7.672;2022-12-18T11:59:29;10.93;;;10.53;;
6121;SDS011;3091;51.506;7.672;2022-12-18T12:07:29;11.77;;;11.20;;
6121;SDS011;3091;51.506;7.672;2022-12-18T12:17:43;12.23;;;11.73;;
6121;SDS011;3091;51.506;7.672;2022-12-18T12:20:14;11.40;;;10.90;;
6121;SDS011;3091;51.506;7.672;2022-12-18T12:28:00;12.83;;;12.23;;
6121;SDS011;3091;51.506;7.672;2022-12-18T12:33:01;10.33;;;10.03;;
6121;SDS011;3091;51.506;7.672;2022-12-18T12:35:46;11.33;;;10.93;;
6121;SDS011;3091;51.506;7.672;2022-12-18T12:40:47;11.90;;;11.30;;
6121;SDS011;3091;51.506;7.672;2022-12-18T12:43:22;12.57;;;11.87;;
6121;SDS011;3091;51.506;7.672;2022-12-18T12:46:00;10.70;;;10.40;;
6121;SDS011;3091;51.506;7.672;2022-12-18T12:50:54;13.63;;;12.90;;
6121;SDS011;3091;51.506;7.672;2022-12-18T12:53:31;11.50;;;10.90;;
6121;SDS011;3091;51.506;7.672;2022-12-18T12:55:58;11.37;;;10.63;;
6121;SDS011;3091;51.506;7.672;2022-12-18T12:58:27;11.40;;;10.80;;
6121;SDS011;3091;51.506;7.672;2022-12-18T13:06:02;12.30;;;11.80;;
6121;SDS011;3091;51.506;7.672;2022-12-18T13:08:34;11.50;;;11.10;;
6121;SDS011;3091;51.506;7.672;2022-12-18T13:19:39;11.33;;;10.93;;
6121;SDS011;3091;51.506;7.672;2022-12-18T13:22:12;11.13;;;10.73;;
6121;SDS011;3091;51.506;7.672;2022-12-18T13:24:46;13.10;;;12.40;;
6121;SDS011;3091;51.506;7.672;2022-12-18T13:29:57;11.03;;;10.63;;
6121;SDS011;3091;51.506;7.672;2022-12-18T13:32:25;10.83;;;10.43;;
6121;SDS011;3091;51.506;7.672;2022-12-18T13:37:41;11.50;;;11.00;;
6121;SDS011;3091;51.506;7.672;2022-12-18T13:42:52;11.67;;;11.17;;
6121;SDS011;3091;51.506;7.672;2022-12-18T13:45:39;11.00;;;10.70;;
6121;SDS011;3091;51.506;7.672;2022-12-18T13:48:12;12.23;;;11.67;;
6121;SDS011;3091;51.506;7.672;2022-12-18T13:50:40;11.43;;;11.03;;
6121;SDS011;3091;51.506;7.672;2022-12-18T13:53:06;11.97;;;11.50;;
6121;SDS011;3091;51.506;7.672;2022-12-18T13:55:32;11.07;;;10.67;;
6121;SDS011;3091;51.506;7.672;2022-12-18T13:58:11;11.47;;;11.07;;
6121;SDS011;3091;51.506;7.672;2022-12-18T14:00:41;11.73;;;11.30;;
6121;SDS011;3091;51.506;7.672;2022-12-18T14:03:22;10.83;;;10.43;;
6121;SDS011;3091;51.506;7.672;2022-12-18T14:06:10;11.20;;;10.80;;
6121;SDS011;3091;51.506;7.672;2022-12-18T14:08:41;10.90;;;10.60;;
6121;SDS011;3091;51.506;7.672;2022-12-18T14:11:17;10.87;;;10.47;;
6121;SDS011;3091;51.506;7.672;2022-12-18T14:13:45;12.47;;;11.53;;
6121;SDS011;3091;51.506;7.672;2022-12-18T14:16:13;11.40;;;11.00;;
6121;SDS011;3091;51.506;7.672;2022-12-18T14:21:18;10.70;;;10.40;;
6121;SDS011;3091;51.506;7.672;2022-12-18T14:23:45;11.20;;;10.70;;
6121;SDS011;3091;51.506;7.672;2022-12-18T14:26:24;11.70;;;11.20;;
6121;SDS011;3091;51.506;7.672;2022-12-18T14:28:52;11.07;;;10.67;;
6121;SDS011;3091;51.506;7.672;2022-12-18T14:31:19;11.40;;;11.00;;
6121;SDS011;3091;51.506;7.672;2022-12-18T14:33:45;10.67;;;10.37;;
6121;SDS011;3091;51.506;7.672;2022-12-18T14:36:13;11.40;;;11.00;;
6121;SDS011;3091;51.506;7.672;2022-12-18T14:38:41;12.40;;;11.90;;
6121;SDS011;3091;51.506;7.672;2022-12-18T14:41:10;11.70;;;11.20;;
6121;SDS011;3091;51.506;7.672;2022-12-18T14:43:38;12.80;;;12.10;;
6121;SDS011;3091;51.506;7.672;2022-12-18T14:46:05;12.43;;;11.83;;
6121;SDS011;3091;51.506;7.672;2022-12-18T14:51:30;11.60;;;11.10;;
6121;SDS011;3091;51.506;7.672;2022-12-18T14:53:55;13.50;;;12.80;;
6121;SDS011;3091;51.506;7.672;2022-12-18T14:56:28;12.50;;;11.87;;
6121;SDS011;3091;51.506;7.672;2022-12-18T15:03:53;13.03;;;12.30;;
6121;SDS011;3091;51.506;7.672;2022-12-18T15:06:27;13.90;;;13.20;;
6121;SDS011;3091;51.506;7.672;2022-12-18T15:08:53;12.13;;;11.63;;
6121;SDS011;3091;51.506;7.672;2022-12-18T15:11:42;12.97;;;12.37;;
6121;SDS011;3091;51.506;7.672;2022-12-18T15:17:17;13.67;;;12.97;;
6121;SDS011;3091;51.506;7.672;2022-12-18T15:19:44;12.53;;;12.03;;
6121;SDS011;3091;51.506;7.672;2022-12-18T15:24:57;14.80;;;13.80;;
6121;SDS011;3091;51.506;7.672;2022-12-18T15:27:34;15.20;;;14.00;;
6121;SDS011;3091;51.506;7.672;2022-12-18T15:32:38;13.83;;;13.00;;
6121;SDS011;3091;51.506;7.672;2022-12-18T15:37:40;14.10;;;13.23;;
6121;SDS011;3091;51.506;7.672;2022-12-18T15:40:07;15.30;;;14.13;;
6121;SDS011;3091;51.506;7.672;2022-12-18T15:42:34;15.30;;;14.37;;
6121;SDS011;3091;51.506;7.672;2022-12-18T15:45:18;14.67;;;13.77;;
6121;SDS011;3091;51.506;7.672;2022-12-18T15:47:44;13.30;;;12.60;;
6121;SDS011;3091;51.506;7.672;2022-12-18T15:50:10;14.67;;;13.83;;
6121;SDS011;3091;51.506;7.672;2022-12-18T15:52:39;13.87;;;12.97;;
6121;SDS011;3091;51.506;7.672;2022-12-18T15:55:39;14.37;;;13.40;;
6121;SDS011;3091;51.506;7.672;2022-12-18T15:58:17;14.40;;;13.60;;
6121;SDS011;3091;51.506;7.672;2022-12-18T16:00:45;14.50;;;13.50;;
6121;SDS011;3091;51.506;7.672;2022-12-18T16:03:13;15.13;;;13.80;;
6121;SDS011;3091;51.506;7.672;2022-12-18T16:05:39;12.73;;;12.10;;
6121;SDS011;3091;51.506;7.672;2022-12-18T16:08:05;14.67;;;13.87;;
6121;SDS011;3091;51.506;7.672;2022-12-18T16:10:31;14.17;;;13.37;;
6121;SDS011;3091;51.506;7.672;2022-12-18T16:12:57;12.30;;;11.90;;
6121;SDS011;3091;51.506;7.672;2022-12-18T16:15:23;14.50;;;13.23;;
6121;SDS011;3091;51.506;7.672;2022-12-18T16:17:51;12.57;;;12.03;;
6121;SDS011;3091;51.506;7.672;2022-12-18T16:20:19;13.20;;;12.43;;
6121;SDS011;3091;51.506;7.672;2022-12-18T16:22:46;14.63;;;13.77;;
6121;SDS011;3091;51.506;7.672;2022-12-18T16:25:25;12.27;;;11.73;;
6121;SDS011;3091;51.506;7.672;2022-12-18T16:27:54;14.97;;;13.90;;
6121;SDS011;3091;51.506;7.672;2022-12-18T16:30:21;14.20;;;13.37;;
6121;SDS011;3091;51.506;7.672;2022-12-18T16:32:51;12.57;;;12.07;;
6121;SDS011;3091;51.506;7.672;2022-12-18T16:35:17;13.53;;;12.53;;
6121;SDS011;3091;51.506;7.672;2022-12-18T16:37:43;15.37;;;14.47;;
6121;SDS011;3091;51.506;7.672;2022-12-18T16:40:10;12.57;;;11.97;;
6121;SDS011;3091;51.506;7.672;2022-12-18T16:42:37;13.50;;;12.53;;